createdAt,value
2017-08-27T18:30:51.845Z,18.60
2017-08-27T18:33:20.332Z,18.60
2017-08-27T18:35:48.034Z,18.50
2017-08-27T18:38:15.768Z,18.50
2017-08-27T18:40:43.557Z,18.40
2017-08-27T18:43:11.311Z,18.30
2017-08-27T18:45:38.896Z,18.30
2017-08-27T18:48:06.520Z,18.30
2017-08-27T18:50:34.907Z,18.20
2017-08-27T18:53:02.699Z,18.20
2017-08-27T18:55:30.748Z,18.30
2017-08-27T18:57:59.151Z,18.20
2017-08-27T19:00:26.915Z,18.20
2017-08-27T19:03:00.271Z,18.20
2017-08-27T19:05:27.853Z,18.20
2017-08-27T19:07:55.419Z,18.20
2017-08-27T19:10:23.011Z,18.20
2017-08-27T19:12:50.623Z,18.20
2017-08-27T19:15:18.366Z,18.20
2017-08-27T19:17:45.955Z,18.10
2017-08-27T19:20:13.527Z,18.20
2017-08-27T19:22:41.119Z,18.20
2017-08-27T19:25:08.837Z,18.20
2017-08-27T19:27:36.606Z,18.00
2017-08-27T19:30:04.366Z,18.00
2017-08-27T19:32:32.115Z,17.90
2017-08-27T19:34:59.679Z,17.90
2017-08-27T19:37:27.352Z,17.80
2017-08-27T19:39:55.111Z,17.80
2017-08-27T19:42:22.859Z,17.70
2017-08-27T19:44:50.418Z,17.60
2017-08-27T19:47:18.121Z,17.50
2017-08-27T19:49:45.703Z,17.50
2017-08-27T19:52:13.623Z,17.50
2017-08-27T19:54:41.359Z,17.60
2017-08-27T19:57:09.095Z,17.60
2017-08-27T19:59:36.915Z,17.60
2017-08-27T20:02:04.648Z,17.60
2017-08-27T20:04:32.240Z,17.50
2017-08-27T20:07:00.488Z,17.60
2017-08-27T20:09:28.184Z,17.50
2017-08-27T20:11:55.750Z,17.40
2017-08-27T20:14:23.804Z,17.40
2017-08-27T20:16:51.411Z,17.40
2017-08-27T20:19:18.991Z,17.40
2017-08-27T20:21:46.771Z,17.30
2017-08-27T20:24:15.270Z,17.30
2017-08-27T20:26:42.915Z,17.20
2017-08-27T20:29:11.478Z,17.30
2017-08-27T20:31:39.059Z,17.30
2017-08-27T20:34:06.651Z,17.30
2017-08-27T20:36:34.280Z,17.20
2017-08-27T20:39:02.019Z,17.20
2017-08-27T20:41:29.819Z,17.20
2017-08-27T20:43:57.580Z,17.10
2017-08-27T20:46:25.638Z,17.10
2017-08-27T20:48:53.390Z,17.10
2017-08-27T20:51:21.162Z,17.00
2017-08-27T20:53:48.744Z,17.00
2017-08-27T20:56:17.699Z,17.00
2017-08-27T20:58:45.287Z,17.00
2017-08-27T21:01:12.866Z,17.00
2017-08-27T21:03:40.435Z,17.00
2017-08-27T21:06:08.023Z,17.00
2017-08-27T21:08:35.819Z,17.00
2017-08-27T21:11:03.599Z,16.90
2017-08-27T21:13:31.904Z,16.90
2017-08-27T21:15:59.470Z,16.90
2017-08-27T21:18:27.467Z,16.80
2017-08-27T21:20:55.254Z,16.70
2017-08-27T21:23:23.218Z,16.70
2017-08-27T21:25:50.789Z,16.70
2017-08-27T21:28:18.362Z,16.70
2017-08-27T21:30:45.983Z,16.80
2017-08-27T21:33:13.759Z,16.70
2017-08-27T21:35:41.537Z,16.70
2017-08-27T21:38:09.306Z,16.60
2017-08-27T21:40:37.180Z,16.70
2017-08-27T21:43:04.837Z,16.70
2017-08-27T21:45:32.512Z,16.60
2017-08-27T21:48:00.098Z,16.60
2017-08-27T21:50:27.799Z,16.60
2017-08-27T21:52:55.395Z,16.60
2017-08-27T21:55:23.019Z,16.60
2017-08-27T21:57:50.590Z,16.60
2017-08-27T22:00:19.321Z,16.50
2017-08-27T22:02:46.942Z,16.60
2017-08-27T22:05:14.810Z,16.60
2017-08-27T22:07:42.454Z,16.70
2017-08-27T22:10:10.043Z,16.70
2017-08-27T22:12:37.675Z,16.70
2017-08-27T22:15:05.259Z,16.70
2017-08-27T22:17:32.874Z,16.60
2017-08-27T22:20:00.568Z,16.50
2017-08-27T22:22:28.347Z,16.50
2017-08-27T22:24:56.627Z,16.50
2017-08-27T22:27:24.245Z,16.50
2017-08-27T22:29:51.833Z,16.50
2017-08-27T22:32:19.431Z,16.50
2017-08-27T22:34:47.285Z,16.50
2017-08-27T22:37:15.021Z,16.40
2017-08-27T22:39:42.590Z,16.40
2017-08-27T22:42:10.219Z,16.50
2017-08-27T22:44:37.944Z,16.40
2017-08-27T22:47:05.535Z,16.40
2017-08-27T22:49:33.212Z,16.40
2017-08-27T22:52:00.790Z,16.40
2017-08-27T22:54:28.350Z,16.40
2017-08-27T22:56:55.951Z,16.40
2017-08-27T22:59:23.631Z,16.40
2017-08-27T23:01:51.531Z,16.50
2017-08-27T23:04:19.181Z,16.50
2017-08-27T23:06:46.950Z,16.50
2017-08-27T23:09:14.825Z,16.40
2017-08-27T23:11:42.422Z,16.40
2017-08-27T23:14:09.988Z,16.40
2017-08-27T23:16:37.703Z,16.20
2017-08-27T23:19:05.570Z,16.20
2017-08-27T23:21:33.194Z,16.20
2017-08-27T23:24:00.993Z,16.10
2017-08-27T23:26:28.654Z,16.10
2017-08-27T23:28:56.503Z,16.20
2017-08-27T23:31:24.387Z,16.20
2017-08-27T23:33:52.351Z,16.20
2017-08-27T23:36:19.923Z,16.10
2017-08-27T23:38:47.985Z,16.10
2017-08-27T23:41:15.626Z,16.00
2017-08-27T23:43:43.714Z,16.00
2017-08-27T23:46:11.466Z,16.00
2017-08-27T23:48:39.243Z,16.00
2017-08-27T23:51:06.871Z,16.00
2017-08-27T23:53:34.567Z,16.00
2017-08-27T23:56:02.232Z,15.90
2017-08-27T23:58:29.874Z,15.90
